Aviation Digital Data Service (ADDS)

Output produced by TAFs form (1739 UTC 21 April 2018)
found at http://aviationweather.gov/adds/tafs/
 
ROAH 211730Z 13008KT 9999 FEW007 SCT010 BKN015 23/21 Q1015 RMK 1ST007 4CU010 7CU015 A2998
TAF ROAH 211706Z 2118/2300 11014KT 9999 FEW008 BKN015 
     TEMPO 2118/2119 FEW005 BKN008 
     TEMPO 2119/2201 11015G25KT 3000 TSRA FEW005 BKN008 SCT020CB 
     TEMPO 2201/2203 FEW005 BKN008 
     TEMPO 2218/2300 FEW005 BKN008